MSC Bari — A8YD3 — position and weather

sailwx.info

Track history (hours):
 
Tides and Currents Weather Stations Pressure Air Temp Water Temp Dewpoint Dewpoint Depression Visibility Wind Speed Wind Dir Waves Ship Positions

MSC Bari

Last reported at 2017-Mar-26 09:09 UTC. Time now 2017-Mar-26 13:08 UTC.
Position N 01°18' E 103°19'.

Length 366 m; draft 15.8 m.

Type: Ship (hazmat cat A). MMSI: 636092188.

Date/timePositionNaut miles runAvg speedWind from/ knotsBaromVisibWave heightAir tempDewpointWater temp
2017-Mar-26 09:09N 01°18' E 103°19'1119.0
2017-Mar-26 08:33N 01°13' E 103°30'1615.7
2017-Mar-26 07:33N 01°09' E 103°45'6 5.7
2017-Mar-26 06:33N 01°13' E 103°47'3 3.4
2017-Mar-26 05:34N 01°16' E 103°46'0 0.0
2017-Mar-26 04:33N 01°16' E 103°46'0 0.0
2017-Mar-26 03:28N 01°16' E 103°46'0 0.0
2017-Mar-26 02:33N 01°16' E 103°46'0 0.0
2017-Mar-26 01:33N 01°16' E 103°46'0 0.0
2017-Mar-26 00:33N 01°16' E 103°46'0 0.0
2017-Mar-25 23:33N 01°16' E 103°46'0 0.0
2017-Mar-25 22:30N 01°16' E 103°46'0 0.0
2017-Mar-25 21:33N 01°16' E 103°46'0 0.0
2017-Mar-25 20:33N 01°16' E 103°46'0 0.0
2017-Mar-25 19:30N 01°16' E 103°46'0 0.0
2017-Mar-25 18:30N 01°16' E 103°46'0 0.0
2017-Mar-25 17:33N 01°16' E 103°46'0 0.0
2017-Mar-25 16:33N 01°16' E 103°46'0 0.0
2017-Mar-25 15:33N 01°16' E 103°46'0 0.0
2017-Mar-25 14:33N 01°16' E 103°46'0 0.0
2017-Mar-25 13:33N 01°16' E 103°46'0 0.0
2017-Mar-25 12:33N 01°16' E 103°46'0 0.0
2017-Mar-25 11:33N 01°16' E 103°46'0 0.0
2017-Mar-25 10:33N 01°16' E 103°46'0 0.1
2017-Mar-25 09:33N 01°16' E 103°46'0 0.1
2017-Mar-25 08:33N 01°16' E 103°46'0 0.0
2017-Mar-25 07:33N 01°16' E 103°46'0 0.0
2017-Mar-25 06:33N 01°16' E 103°46'0 0.0
2017-Mar-25 05:33N 01°16' E 103°46'0 0.0
2017-Mar-25 04:33N 01°16' E 103°46'0 0.0
2017-Mar-25 03:33N 01°16' E 103°46'0 0.1
2017-Mar-25 02:33N 01°16' E 103°46'8 8.0
2017-Mar-25 01:33N 01°13' E 103°53'8 8.2
2017-Mar-25 00:33N 01°16' E 104°01'10 9.5
2017-Mar-24 23:32N 01°17' E 104°11'1210.7
2017-Mar-24 22:27N 01°21' E 104°22'  
2017-Mar-19 23:14N 23°52' E 118°14'1519.9
2017-Mar-19 22:29N 24°05' E 118°20'1516.5
2017-Mar-19 21:34N 24°19' E 118°12'1211.6
2017-Mar-19 20:34N 24°26' E 118°02'1 1.1
2017-Mar-19 19:32N 24°27' E 118°01'0 0.0
2017-Mar-19 18:29N 24°27' E 118°01'0 0.0
2017-Mar-19 17:26N 24°27' E 118°01'0 0.0
2017-Mar-19 16:29N 24°27' E 118°01'0 0.0
2017-Mar-19 15:32N 24°27' E 118°01'0 0.0
2017-Mar-19 14:32N 24°27' E 118°01'0 0.0
2017-Mar-19 13:32N 24°27' E 118°01'0 0.0
2017-Mar-19 12:32N 24°27' E 118°01'0 0.0
2017-Mar-19 11:32N 24°27' E 118°01'0 0.5
2017-Mar-19 10:33N 24°26' E 118°01'9 9.5
2017-Mar-19 09:33N 24°21' E 118°10'1010.3
2017-Mar-19 08:33N 24°13' E 118°18'1414.3
2017-Mar-19 07:34N 24°13' E 118°33'1610.7
2017-Mar-19 06:06N 24°19' E 118°49'  
2017-Mar-16 18:32N 30°31' E 122°27'1111.1
2017-Mar-16 17:33N 30°33' E 122°14'1110.3
2017-Mar-16 16:31N 30°38' E 122°03'0 0.2
2017-Mar-16 15:11N 30°38' E 122°03'0 0.0
2017-Mar-16 14:17N 30°38' E 122°03'  
Track history (hours):
 
Tides and Currents Weather Stations Pressure Air Temp Water Temp Dewpoint Dewpoint Depression Visibility Wind Speed Wind Dir Waves Ship Positions

MSC Bari

Last reported at 2017-Mar-26 09:09 UTC. Time now 2017-Mar-26 13:08 UTC.
Position N 01°18' E 103°19'.

Length 366 m; draft 15.8 m.

Type: Ship (hazmat cat A). MMSI: 636092188.

Date/timePositionNaut miles runAvg speedWind from/ knotsBaromVisibWave heightAir tempDewpointWater temp
2017-Mar-26 09:09N 01°18' E 103°19'1119.0
2017-Mar-26 08:33N 01°13' E 103°30'1615.7
2017-Mar-26 07:33N 01°09' E 103°45'6 5.7
2017-Mar-26 06:33N 01°13' E 103°47'3 3.4
2017-Mar-26 05:34N 01°16' E 103°46'0 0.0
2017-Mar-26 04:33N 01°16' E 103°46'0 0.0
2017-Mar-26 03:28N 01°16' E 103°46'0 0.0
2017-Mar-26 02:33N 01°16' E 103°46'0 0.0
2017-Mar-26 01:33N 01°16' E 103°46'0 0.0
2017-Mar-26 00:33N 01°16' E 103°46'0 0.0
2017-Mar-25 23:33N 01°16' E 103°46'0 0.0
2017-Mar-25 22:30N 01°16' E 103°46'0 0.0
2017-Mar-25 21:33N 01°16' E 103°46'0 0.0
2017-Mar-25 20:33N 01°16' E 103°46'0 0.0
2017-Mar-25 19:30N 01°16' E 103°46'0 0.0
2017-Mar-25 18:30N 01°16' E 103°46'0 0.0
2017-Mar-25 17:33N 01°16' E 103°46'0 0.0
2017-Mar-25 16:33N 01°16' E 103°46'0 0.0
2017-Mar-25 15:33N 01°16' E 103°46'0 0.0
2017-Mar-25 14:33N 01°16' E 103°46'0 0.0
2017-Mar-25 13:33N 01°16' E 103°46'0 0.0
2017-Mar-25 12:33N 01°16' E 103°46'0 0.0
2017-Mar-25 11:33N 01°16' E 103°46'0 0.0
2017-Mar-25 10:33N 01°16' E 103°46'0 0.1
2017-Mar-25 09:33N 01°16' E 103°46'0 0.1
2017-Mar-25 08:33N 01°16' E 103°46'0 0.0
2017-Mar-25 07:33N 01°16' E 103°46'0 0.0
2017-Mar-25 06:33N 01°16' E 103°46'0 0.0
2017-Mar-25 05:33N 01°16' E 103°46'0 0.0
2017-Mar-25 04:33N 01°16' E 103°46'0 0.0
2017-Mar-25 03:33N 01°16' E 103°46'0 0.1
2017-Mar-25 02:33N 01°16' E 103°46'8 8.0
2017-Mar-25 01:33N 01°13' E 103°53'8 8.2
2017-Mar-25 00:33N 01°16' E 104°01'10 9.5
2017-Mar-24 23:32N 01°17' E 104°11'1210.7
2017-Mar-24 22:27N 01°21' E 104°22'  
2017-Mar-19 23:14N 23°52' E 118°14'1519.9
2017-Mar-19 22:29N 24°05' E 118°20'1516.5
2017-Mar-19 21:34N 24°19' E 118°12'1211.6
2017-Mar-19 20:34N 24°26' E 118°02'1 1.1
2017-Mar-19 19:32N 24°27' E 118°01'0 0.0
2017-Mar-19 18:29N 24°27' E 118°01'0 0.0
2017-Mar-19 17:26N 24°27' E 118°01'0 0.0
2017-Mar-19 16:29N 24°27' E 118°01'0 0.0
2017-Mar-19 15:32N 24°27' E 118°01'0 0.0
2017-Mar-19 14:32N 24°27' E 118°01'0 0.0
2017-Mar-19 13:32N 24°27' E 118°01'0 0.0
2017-Mar-19 12:32N 24°27' E 118°01'0 0.0
2017-Mar-19 11:32N 24°27' E 118°01'0 0.5
2017-Mar-19 10:33N 24°26' E 118°01'9 9.5
2017-Mar-19 09:33N 24°21' E 118°10'1010.3
2017-Mar-19 08:33N 24°13' E 118°18'1414.3
2017-Mar-19 07:34N 24°13' E 118°33'1610.7
2017-Mar-19 06:06N 24°19' E 118°49'  
2017-Mar-16 18:32N 30°31' E 122°27'1111.1
2017-Mar-16 17:33N 30°33' E 122°14'1110.3
2017-Mar-16 16:31N 30°38' E 122°03'0 0.2
2017-Mar-16 15:11N 30°38' E 122°03'0 0.0
2017-Mar-16 14:17N 30°38' E 122°03'  

Dump ship's entire track history